PAEN/ENA METAR and TAF weather

Enter ICAO airport designator
Station Type Date Time Source
PAEN METAR 2019/02/21 11:53 UTC NOAA

PAEN 211153Z AUTO 01017KT 4SM -SN BR OVC049 M05/M06 A2976 RMK AO2 SLP080 P0000 60000 70002 T10501061 11050 21050 58016 TSNO


Station Type Date Time Source
PAEN Decoded METAR 2019/02/21 11:53 UTC NOAA

KENAI MUNICIPAL AIRPORT, AK, United States (PAEN) 60-35N 151-14W 25M
Feb 21, 2019 - 06:53 AM EST / 2019.02.21 1153 UTC
Wind: from the N (010 degrees) at 20 MPH (17 KT):0
Visibility: 4 mile(s):0
Sky conditions: overcast
Weather: light snow; mist
Precipitation last hour: A trace
Temperature: 23.0 F (-5.0 C)
Windchill: 8 F (-13 C):1
Dew Point: 21.0 F (-6.1 C)
Relative Humidity: 91%
Pressure (altimeter): 29.76 in. Hg (1007 hPa)
Pressure tendency: 0.05 inches (1.6 hPa) lower than three hours ago
ob: PAEN 211153Z AUTO 01017KT 4SM -SN BR OVC049 M05/M06 A2976 RMK AO2 SLP080 P0000 60000 70002 T10501061 11050 21050 58016 TSNO
cycle: 12

Station Type Date Time Source
PAEN TAF 2019/02/21 12:42 UTC NOAA

TAF PAEN 211140Z 2112/2212 01013KT 4SM -SN BLSN SCT025 OVC035
TEMPO 2112/2116 2SM -SN BLSN OVC025
FM211600 VRB06KT P6SM BKN050


Example: see airport list